sensor_id;sensor_type;location;lat;lon;timestamp;pressure;altitude;pressure_sealevel;temperature;humidity
73501;BME280;61721;42.206;25.320;2023-01-29T00:01:36;99841.97;;;3.99;74.34
73501;BME280;61721;42.206;25.320;2023-01-29T00:04:04;99832.63;;;3.93;74.47
73501;BME280;61721;42.206;25.320;2023-01-29T00:06:33;99834.41;;;3.93;75.48
73501;BME280;61721;42.206;25.320;2023-01-29T00:09:00;99841.72;;;3.89;76.02
73501;BME280;61721;42.206;25.320;2023-01-29T00:11:27;99834.44;;;3.78;75.46
73501;BME280;61721;42.206;25.320;2023-01-29T00:13:55;99851.56;;;3.73;76.12
73501;BME280;61721;42.206;25.320;2023-01-29T00:16:23;99852.06;;;4.20;74.64
73501;BME280;61721;42.206;25.320;2023-01-29T00:18:50;99849.25;;;4.09;75.37
73501;BME280;61721;42.206;25.320;2023-01-29T00:21:19;99841.06;;;4.26;74.93
73501;BME280;61721;42.206;25.320;2023-01-29T00:23:48;99851.25;;;3.92;76.08
73501;BME280;61721;42.206;25.320;2023-01-29T00:26:16;99860.44;;;3.72;76.09
73501;BME280;61721;42.206;25.320;2023-01-29T00:28:43;99860.03;;;3.92;75.45
73501;BME280;61721;42.206;25.320;2023-01-29T00:31:12;99855.53;;;3.37;77.70
73501;BME280;61721;42.206;25.320;2023-01-29T00:33:40;99862.81;;;3.34;79.08
73501;BME280;61721;42.206;25.320;2023-01-29T00:36:09;99855.91;;;3.60;77.28
73501;BME280;61721;42.206;25.320;2023-01-29T00:38:37;99860.81;;;3.66;76.85
73501;BME280;61721;42.206;25.320;2023-01-29T00:41:07;99864.69;;;3.74;76.93
73501;BME280;61721;42.206;25.320;2023-01-29T00:44:05;99865.66;;;3.59;77.03
73501;BME280;61721;42.206;25.320;2023-01-29T00:46:50;99857.31;;;3.79;76.53
73501;BME280;61721;42.206;25.320;2023-01-29T00:49:17;99867.34;;;3.60;77.22
73501;BME280;61721;42.206;25.320;2023-01-29T00:51:44;99864.22;;;3.54;77.13
73501;BME280;61721;42.206;25.320;2023-01-29T00:54:33;99861.00;;;3.91;76.42
73501;BME280;61721;42.206;25.320;2023-01-29T00:57:02;99860.06;;;3.78;76.48
73501;BME280;61721;42.206;25.320;2023-01-29T00:59:30;99867.34;;;3.88;76.30
73501;BME280;61721;42.206;25.320;2023-01-29T01:01:57;99871.19;;;3.40;77.94
73501;BME280;61721;42.206;25.320;2023-01-29T01:04:41;99867.81;;;3.67;76.84
73501;BME280;61721;42.206;25.320;2023-01-29T01:07:08;99863.28;;;3.83;77.17
73501;BME280;61721;42.206;25.320;2023-01-29T01:09:35;99869.31;;;3.42;78.34
73501;BME280;61721;42.206;25.320;2023-01-29T01:12:21;99874.03;;;3.37;78.91
73501;BME280;61721;42.206;25.320;2023-01-29T01:14:49;99872.59;;;3.32;78.92
73501;BME280;61721;42.206;25.320;2023-01-29T01:17:16;99873.47;;;3.61;78.35
73501;BME280;61721;42.206;25.320;2023-01-29T01:19:43;99884.03;;;3.32;78.86
73501;BME280;61721;42.206;25.320;2023-01-29T01:22:10;99884.31;;;3.14;79.66
73501;BME280;61721;42.206;25.320;2023-01-29T01:24:38;99890.75;;;3.24;80.04
73501;BME280;61721;42.206;25.320;2023-01-29T01:27:06;99884.97;;;3.17;80.32
73501;BME280;61721;42.206;25.320;2023-01-29T01:29:34;99880.31;;;3.07;80.31
73501;BME280;61721;42.206;25.320;2023-01-29T01:32:02;99886.25;;;2.80;81.12
73501;BME280;61721;42.206;25.320;2023-01-29T01:34:29;99884.50;;;2.95;80.31
73501;BME280;61721;42.206;25.320;2023-01-29T01:36:56;99886.56;;;2.90;81.30
73501;BME280;61721;42.206;25.320;2023-01-29T01:39:24;99894.72;;;3.01;80.87
73501;BME280;61721;42.206;25.320;2023-01-29T01:41:52;99893.22;;;2.97;81.07
73501;BME280;61721;42.206;25.320;2023-01-29T01:44:52;99894.44;;;2.91;81.80
73501;BME280;61721;42.206;25.320;2023-01-29T01:47:25;99888.25;;;3.07;80.97
73501;BME280;61721;42.206;25.320;2023-01-29T01:49:54;99890.13;;;3.05;81.51
73501;BME280;61721;42.206;25.320;2023-01-29T01:52:23;99902.56;;;3.47;79.77
73501;BME280;61721;42.206;25.320;2023-01-29T01:54:50;99889.47;;;3.73;78.65
73501;BME280;61721;42.206;25.320;2023-01-29T01:57:20;99898.78;;;3.51;78.36
73501;BME280;61721;42.206;25.320;2023-01-29T01:59:56;99910.91;;;3.55;78.61
73501;BME280;61721;42.206;25.320;2023-01-29T02:02:26;99910.50;;;3.32;78.92
73501;BME280;61721;42.206;25.320;2023-01-29T02:05:11;99917.59;;;3.46;79.69
73501;BME280;61721;42.206;25.320;2023-01-29T02:07:57;99916.28;;;3.39;79.85
73501;BME280;61721;42.206;25.320;2023-01-29T02:10:44;99911.88;;;3.68;78.70
73501;BME280;61721;42.206;25.320;2023-01-29T02:13:13;99914.38;;;3.41;79.34
73501;BME280;61721;42.206;25.320;2023-01-29T02:15:45;99911.28;;;3.49;79.28
73501;BME280;61721;42.206;25.320;2023-01-29T02:18:15;99916.41;;;2.92;80.97
73501;BME280;61721;42.206;25.320;2023-01-29T02:20:48;99923.56;;;2.90;81.89
73501;BME280;61721;42.206;25.320;2023-01-29T02:23:31;99927.53;;;2.83;82.33
73501;BME280;61721;42.206;25.320;2023-01-29T02:26:31;99932.56;;;3.17;81.16
73501;BME280;61721;42.206;25.320;2023-01-29T02:29:08;99933.88;;;3.68;78.97
73501;BME280;61721;42.206;25.320;2023-01-29T02:31:56;99932.75;;;3.58;79.46
73501;BME280;61721;42.206;25.320;2023-01-29T02:34:31;99933.56;;;3.44;79.81
73501;BME280;61721;42.206;25.320;2023-01-29T02:37:24;99931.59;;;3.76;78.51
73501;BME280;61721;42.206;25.320;2023-01-29T02:39:58;99933.75;;;3.56;78.65
73501;BME280;61721;42.206;25.320;2023-01-29T02:42:32;99938.72;;;3.32;80.75
73501;BME280;61721;42.206;25.320;2023-01-29T02:45:09;99935.69;;;3.68;79.46
73501;BME280;61721;42.206;25.320;2023-01-29T02:47:43;99937.09;;;3.73;78.92
73501;BME280;61721;42.206;25.320;2023-01-29T02:50:16;99947.75;;;3.58;80.08
73501;BME280;61721;42.206;25.320;2023-01-29T02:52:51;99941.91;;;3.67;79.88
73501;BME280;61721;42.206;25.320;2023-01-29T02:55:24;99942.84;;;3.66;79.72
73501;BME280;61721;42.206;25.320;2023-01-29T02:57:56;99949.84;;;3.81;78.75
73501;BME280;61721;42.206;25.320;2023-01-29T03:00:31;99938.25;;;3.83;78.87
73501;BME280;61721;42.206;25.320;2023-01-29T03:03:03;99943.53;;;3.55;79.41
73501;BME280;61721;42.206;25.320;2023-01-29T03:05:39;99952.13;;;3.73;79.24
73501;BME280;61721;42.206;25.320;2023-01-29T03:08:13;99950.19;;;3.47;80.10
73501;BME280;61721;42.206;25.320;2023-01-29T03:10:46;99957.41;;;3.73;79.38
73501;BME280;61721;42.206;25.320;2023-01-29T03:13:20;99952.47;;;3.53;80.31
73501;BME280;61721;42.206;25.320;2023-01-29T03:15:58;99955.13;;;3.67;79.21
73501;BME280;61721;42.206;25.320;2023-01-29T03:18:31;99963.06;;;3.53;79.73
73501;BME280;61721;42.206;25.320;2023-01-29T03:21:03;99963.75;;;3.26;81.30
73501;BME280;61721;42.206;25.320;2023-01-29T03:23:54;99969.47;;;3.34;81.64
73501;BME280;61721;42.206;25.320;2023-01-29T03:26:41;99962.94;;;3.10;82.58
73501;BME280;61721;42.206;25.320;2023-01-29T03:29:28;99972.91;;;3.05;83.14
73501;BME280;61721;42.206;25.320;2023-01-29T03:32:15;99976.34;;;3.07;83.51
73501;BME280;61721;42.206;25.320;2023-01-29T03:34:47;99977.97;;;3.10;83.42
73501;BME280;61721;42.206;25.320;2023-01-29T03:37:19;99982.78;;;3.17;83.55
73501;BME280;61721;42.206;25.320;2023-01-29T03:39:48;99970.34;;;3.19;83.14
73501;BME280;61721;42.206;25.320;2023-01-29T03:42:21;99973.25;;;3.15;82.72
73501;BME280;61721;42.206;25.320;2023-01-29T03:44:56;99977.69;;;3.14;83.01
73501;BME280;61721;42.206;25.320;2023-01-29T03:47:36;99981.53;;;3.09;83.34
73501;BME280;61721;42.206;25.320;2023-01-29T03:50:11;99978.38;;;3.18;83.15
73501;BME280;61721;42.206;25.320;2023-01-29T03:52:46;99983.34;;;3.08;83.33
73501;BME280;61721;42.206;25.320;2023-01-29T03:55:19;99982.19;;;3.28;82.91
73501;BME280;61721;42.206;25.320;2023-01-29T03:57:53;99982.41;;;3.09;83.18
73501;BME280;61721;42.206;25.320;2023-01-29T04:00:26;99981.00;;;3.18;83.36
73501;BME280;61721;42.206;25.320;2023-01-29T04:03:01;99983.44;;;2.75;84.66
73501;BME280;61721;42.206;25.320;2023-01-29T04:05:36;99988.59;;;3.54;83.03
73501;BME280;61721;42.206;25.320;2023-01-29T04:08:08;99991.66;;;3.16;83.39
73501;BME280;61721;42.206;25.320;2023-01-29T04:10:38;99984.47;;;3.04;83.45
73501;BME280;61721;42.206;25.320;2023-01-29T04:13:10;100001.78;;;3.39;83.32
73501;BME280;61721;42.206;25.320;2023-01-29T04:15:43;99999.44;;;3.19;83.39
73501;BME280;61721;42.206;25.320;2023-01-29T04:18:14;100000.44;;;3.17;83.14
73501;BME280;61721;42.206;25.320;2023-01-29T04:20:42;100003.56;;;2.93;84.25
73501;BME280;61721;42.206;25.320;2023-01-29T04:23:19;99997.19;;;2.82;84.51
73501;BME280;61721;42.206;25.320;2023-01-29T04:25:53;99999.63;;;3.00;83.55
73501;BME280;61721;42.206;25.320;2023-01-29T04:28:46;99998.41;;;3.06;83.80
73501;BME280;61721;42.206;25.320;2023-01-29T04:31:17;99997.34;;;3.40;82.89
73501;BME280;61721;42.206;25.320;2023-01-29T04:33:57;100005.59;;;3.04;83.76
73501;BME280;61721;42.206;25.320;2023-01-29T04:36:33;100000.59;;;2.84;84.93
73501;BME280;61721;42.206;25.320;2023-01-29T04:39:08;100002.00;;;3.05;83.71
73501;BME280;61721;42.206;25.320;2023-01-29T04:41:44;100006.63;;;2.86;84.18
73501;BME280;61721;42.206;25.320;2023-01-29T04:44:19;100000.47;;;3.01;84.63
73501;BME280;61721;42.206;25.320;2023-01-29T04:46:49;100009.84;;;3.07;83.71
73501;BME280;61721;42.206;25.320;2023-01-29T04:49:28;100011.88;;;3.17;83.23
73501;BME280;61721;42.206;25.320;2023-01-29T04:52:00;100014.13;;;3.09;83.96
73501;BME280;61721;42.206;25.320;2023-01-29T04:54:39;100025.69;;;3.22;83.58
73501;BME280;61721;42.206;25.320;2023-01-29T04:57:14;100018.50;;;2.79;84.52
73501;BME280;61721;42.206;25.320;2023-01-29T04:59:47;100026.91;;;2.70;84.81
73501;BME280;61721;42.206;25.320;2023-01-29T05:02:18;100017.19;;;2.86;84.51
73501;BME280;61721;42.206;25.320;2023-01-29T05:04:51;100027.94;;;2.98;84.42
73501;BME280;61721;42.206;25.320;2023-01-29T05:07:20;100028.03;;;2.97;84.52
73501;BME280;61721;42.206;25.320;2023-01-29T05:09:49;100028.72;;;2.69;85.07
73501;BME280;61721;42.206;25.320;2023-01-29T05:12:17;100032.66;;;2.78;84.81
73501;BME280;61721;42.206;25.320;2023-01-29T05:14:45;100026.75;;;3.04;84.37
73501;BME280;61721;42.206;25.320;2023-01-29T05:17:15;100028.97;;;2.96;84.39
73501;BME280;61721;42.206;25.320;2023-01-29T05:19:43;100032.38;;;2.67;85.00
73501;BME280;61721;42.206;25.320;2023-01-29T05:22:14;100032.38;;;2.82;84.55
73501;BME280;61721;42.206;25.320;2023-01-29T05:24:42;100034.44;;;2.77;84.73
73501;BME280;61721;42.206;25.320;2023-01-29T05:27:16;100043.28;;;2.76;85.16
73501;BME280;61721;42.206;25.320;2023-01-29T05:30:02;100044.66;;;2.52;84.55
73501;BME280;61721;42.206;25.320;2023-01-29T05:32:29;100046.19;;;2.56;84.88
73501;BME280;61721;42.206;25.320;2023-01-29T05:34:57;100054.31;;;2.84;84.23
73501;BME280;61721;42.206;25.320;2023-01-29T05:37:25;100050.09;;;2.65;84.23
73501;BME280;61721;42.206;25.320;2023-01-29T05:39:52;100056.22;;;2.65;85.49
73501;BME280;61721;42.206;25.320;2023-01-29T05:42:20;100054.31;;;2.69;84.57
73501;BME280;61721;42.206;25.320;2023-01-29T05:44:47;100056.09;;;2.84;84.27
73501;BME280;61721;42.206;25.320;2023-01-29T05:47:18;100058.63;;;2.70;84.47
73501;BME280;61721;42.206;25.320;2023-01-29T05:49:45;100067.16;;;2.75;83.95
73501;BME280;61721;42.206;25.320;2023-01-29T05:52:12;100067.75;;;2.80;84.58
73501;BME280;61721;42.206;25.320;2023-01-29T05:54:41;100068.88;;;2.91;83.51
73501;BME280;61721;42.206;25.320;2023-01-29T05:57:08;100073.16;;;2.94;84.33
73501;BME280;61721;42.206;25.320;2023-01-29T05:59:35;100082.31;;;2.55;84.81
73501;BME280;61721;42.206;25.320;2023-01-29T06:02:02;100069.03;;;2.73;84.73
73501;BME280;61721;42.206;25.320;2023-01-29T06:04:29;100082.25;;;2.73;85.32
73501;BME280;61721;42.206;25.320;2023-01-29T06:06:56;100081.16;;;2.77;84.59
73501;BME280;61721;42.206;25.320;2023-01-29T06:09:23;100094.75;;;2.53;85.18
73501;BME280;61721;42.206;25.320;2023-01-29T06:11:52;100085.03;;;2.70;84.81
73501;BME280;61721;42.206;25.320;2023-01-29T06:14:19;100098.69;;;2.62;84.73
73501;BME280;61721;42.206;25.320;2023-01-29T06:16:46;100096.41;;;2.72;85.06
73501;BME280;61721;42.206;25.320;2023-01-29T06:19:15;100096.06;;;2.78;85.03
73501;BME280;61721;42.206;25.320;2023-01-29T06:21:43;100098.72;;;3.09;83.21
73501;BME280;61721;42.206;25.320;2023-01-29T06:24:10;100099.13;;;2.86;84.04
73501;BME280;61721;42.206;25.320;2023-01-29T06:26:37;100101.78;;;3.01;83.66
73501;BME280;61721;42.206;25.320;2023-01-29T06:29:05;100116.19;;;2.80;84.60
73501;BME280;61721;42.206;25.320;2023-01-29T06:31:32;100109.72;;;2.86;84.72
73501;BME280;61721;42.206;25.320;2023-01-29T06:34:00;100117.50;;;2.89;84.65
73501;BME280;61721;42.206;25.320;2023-01-29T06:36:27;100118.50;;;3.02;84.17
73501;BME280;61721;42.206;25.320;2023-01-29T06:38:54;100118.13;;;2.77;84.97
73501;BME280;61721;42.206;25.320;2023-01-29T06:41:21;100123.59;;;2.74;85.19
73501;BME280;61721;42.206;25.320;2023-01-29T06:43:50;100130.59;;;2.90;83.83
73501;BME280;61721;42.206;25.320;2023-01-29T06:46:18;100129.56;;;2.77;84.79
73501;BME280;61721;42.206;25.320;2023-01-29T06:48:45;100135.09;;;2.73;84.26
73501;BME280;61721;42.206;25.320;2023-01-29T06:51:13;100130.94;;;2.69;85.08
73501;BME280;61721;42.206;25.320;2023-01-29T06:53:40;100138.75;;;2.70;85.28
73501;BME280;61721;42.206;25.320;2023-01-29T06:56:07;100136.38;;;2.81;85.00
73501;BME280;61721;42.206;25.320;2023-01-29T06:58:36;100145.06;;;2.68;85.50
73501;BME280;61721;42.206;25.320;2023-01-29T07:01:04;100141.97;;;2.59;85.21
73501;BME280;61721;42.206;25.320;2023-01-29T07:03:33;100151.56;;;2.78;84.72
73501;BME280;61721;42.206;25.320;2023-01-29T07:06:00;100151.09;;;2.70;85.49
73501;BME280;61721;42.206;25.320;2023-01-29T07:08:28;100153.91;;;2.67;85.48
73501;BME280;61721;42.206;25.320;2023-01-29T07:10:57;100146.94;;;2.66;85.14
73501;BME280;61721;42.206;25.320;2023-01-29T07:13:25;100151.78;;;2.57;85.58
73501;BME280;61721;42.206;25.320;2023-01-29T07:15:53;100153.31;;;2.62;85.61
73501;BME280;61721;42.206;25.320;2023-01-29T07:18:20;100156.06;;;2.76;85.20
73501;BME280;61721;42.206;25.320;2023-01-29T07:20:48;100158.09;;;2.71;85.33
73501;BME280;61721;42.206;25.320;2023-01-29T07:23:16;100158.13;;;2.86;85.24
73501;BME280;61721;42.206;25.320;2023-01-29T07:25:43;100165.31;;;2.84;84.77
73501;BME280;61721;42.206;25.320;2023-01-29T07:28:10;100162.81;;;2.48;86.01
73501;BME280;61721;42.206;25.320;2023-01-29T07:30:37;100160.31;;;2.63;85.27
73501;BME280;61721;42.206;25.320;2023-01-29T07:33:06;100159.69;;;2.57;86.30
73501;BME280;61721;42.206;25.320;2023-01-29T07:35:35;100159.72;;;2.40;87.16
73501;BME280;61721;42.206;25.320;2023-01-29T07:38:05;100164.69;;;2.29;86.92
73501;BME280;61721;42.206;25.320;2023-01-29T07:40:32;100152.59;;;2.25;87.15
73501;BME280;61721;42.206;25.320;2023-01-29T07:42:59;100155.69;;;2.16;87.69
73501;BME280;61721;42.206;25.320;2023-01-29T07:45:27;100149.63;;;2.48;87.11
73501;BME280;61721;42.206;25.320;2023-01-29T07:47:55;100157.00;;;2.42;87.60
73501;BME280;61721;42.206;25.320;2023-01-29T07:50:23;100158.88;;;2.73;86.18
73501;BME280;61721;42.206;25.320;2023-01-29T07:52:53;100164.84;;;2.76;85.13
73501;BME280;61721;42.206;25.320;2023-01-29T07:55:21;100166.59;;;2.93;84.32
73501;BME280;61721;42.206;25.320;2023-01-29T07:57:54;100171.78;;;2.79;84.34
73501;BME280;61721;42.206;25.320;2023-01-29T08:00:21;100170.00;;;2.95;84.07
73501;BME280;61721;42.206;25.320;2023-01-29T08:02:49;100167.38;;;3.58;83.00
73501;BME280;61721;42.206;25.320;2023-01-29T08:05:16;100173.28;;;3.47;83.09
73501;BME280;61721;42.206;25.320;2023-01-29T08:07:43;100168.16;;;3.44;83.40
73501;BME280;61721;42.206;25.320;2023-01-29T08:10:11;100172.59;;;3.43;82.87
73501;BME280;61721;42.206;25.320;2023-01-29T08:12:39;100168.16;;;3.13;83.77
73501;BME280;61721;42.206;25.320;2023-01-29T08:15:07;100183.84;;;3.63;82.80
73501;BME280;61721;42.206;25.320;2023-01-29T08:17:35;100181.53;;;3.25;83.22
73501;BME280;61721;42.206;25.320;2023-01-29T08:20:04;100184.03;;;3.44;82.38
73501;BME280;61721;42.206;25.320;2023-01-29T08:22:33;100187.94;;;2.73;84.47
73501;BME280;61721;42.206;25.320;2023-01-29T08:25:00;100186.53;;;2.83;85.25
73501;BME280;61721;42.206;25.320;2023-01-29T08:27:27;100190.09;;;2.82;85.73
73501;BME280;61721;42.206;25.320;2023-01-29T08:29:56;100195.59;;;3.10;84.81
73501;BME280;61721;42.206;25.320;2023-01-29T08:32:24;100195.19;;;3.02;84.37
73501;BME280;61721;42.206;25.320;2023-01-29T08:34:51;100202.97;;;3.36;83.74
73501;BME280;61721;42.206;25.320;2023-01-29T08:37:18;100199.91;;;3.28;84.63
73501;BME280;61721;42.206;25.320;2023-01-29T08:39:45;100200.41;;;3.51;84.01
73501;BME280;61721;42.206;25.320;2023-01-29T08:42:13;100194.94;;;3.85;83.20
73501;BME280;61721;42.206;25.320;2023-01-29T08:44:40;100207.47;;;4.27;81.42
73501;BME280;61721;42.206;25.320;2023-01-29T08:47:08;100202.56;;;4.21;80.29
73501;BME280;61721;42.206;25.320;2023-01-29T08:49:36;100209.75;;;4.03;79.68
73501;BME280;61721;42.206;25.320;2023-01-29T08:52:03;100205.50;;;4.01;81.34
73501;BME280;61721;42.206;25.320;2023-01-29T08:54:30;100208.63;;;4.07;81.41
73501;BME280;61721;42.206;25.320;2023-01-29T08:56:57;100212.28;;;4.20;80.33
73501;BME280;61721;42.206;25.320;2023-01-29T08:59:25;100216.81;;;3.73;81.12
73501;BME280;61721;42.206;25.320;2023-01-29T09:01:52;100204.50;;;3.72;82.12
73501;BME280;61721;42.206;25.320;2023-01-29T09:04:21;100209.75;;;4.03;81.41
73501;BME280;61721;42.206;25.320;2023-01-29T09:06:48;100208.81;;;4.04;80.78
73501;BME280;61721;42.206;25.320;2023-01-29T09:09:15;100207.59;;;3.80;81.90
73501;BME280;61721;42.206;25.320;2023-01-29T09:11:43;100206.13;;;4.20;80.83
73501;BME280;61721;42.206;25.320;2023-01-29T09:14:10;100204.81;;;3.97;81.61
73501;BME280;61721;42.206;25.320;2023-01-29T09:16:39;100207.38;;;3.99;82.08
73501;BME280;61721;42.206;25.320;2023-01-29T09:19:06;100198.66;;;3.97;81.77
73501;BME280;61721;42.206;25.320;2023-01-29T09:21:35;100202.63;;;3.90;81.62
73501;BME280;61721;42.206;25.320;2023-01-29T09:24:02;100199.53;;;3.81;82.61
73501;BME280;61721;42.206;25.320;2023-01-29T09:26:30;100196.31;;;3.76;82.49
73501;BME280;61721;42.206;25.320;2023-01-29T09:28:57;100193.00;;;4.03;81.91
73501;BME280;61721;42.206;25.320;2023-01-29T09:31:24;100197.44;;;3.57;83.05
73501;BME280;61721;42.206;25.320;2023-01-29T09:33:51;100199.13;;;3.42;83.16
73501;BME280;61721;42.206;25.320;2023-01-29T09:36:18;100204.69;;;3.37;84.05
73501;BME280;61721;42.206;25.320;2023-01-29T09:38:47;100194.63;;;3.75;82.53
73501;BME280;61721;42.206;25.320;2023-01-29T09:41:24;100193.22;;;3.84;82.33
73501;BME280;61721;42.206;25.320;2023-01-29T09:43:56;100208.00;;;3.72;82.95
73501;BME280;61721;42.206;25.320;2023-01-29T09:46:29;100201.53;;;4.08;82.11
73501;BME280;61721;42.206;25.320;2023-01-29T09:49:03;100198.75;;;4.11;82.10
73501;BME280;61721;42.206;25.320;2023-01-29T09:51:36;100203.44;;;4.06;81.84
73501;BME280;61721;42.206;25.320;2023-01-29T09:54:14;100204.56;;;4.32;80.45
73501;BME280;61721;42.206;25.320;2023-01-29T09:56:45;100198.31;;;4.03;81.52
73501;BME280;61721;42.206;25.320;2023-01-29T09:59:13;100184.78;;;4.07;81.45
73501;BME280;61721;42.206;25.320;2023-01-29T10:01:49;100191.06;;;4.06;81.26
73501;BME280;61721;42.206;25.320;2023-01-29T10:07:23;100187.91;;;4.29;81.30
73501;BME280;61721;42.206;25.320;2023-01-29T10:10:04;100180.28;;;4.09;81.04
73501;BME280;61721;42.206;25.320;2023-01-29T10:12:56;100181.56;;;4.02;81.88
73501;BME280;61721;42.206;25.320;2023-01-29T10:15:34;100168.59;;;3.98;82.30
73501;BME280;61721;42.206;25.320;2023-01-29T10:18:28;100174.72;;;4.14;81.62
73501;BME280;61721;42.206;25.320;2023-01-29T10:21:05;100169.91;;;4.20;81.77
73501;BME280;61721;42.206;25.320;2023-01-29T10:23:37;100171.16;;;3.99;81.86
73501;BME280;61721;42.206;25.320;2023-01-29T10:26:10;100162.44;;;3.97;80.99
73501;BME280;61721;42.206;25.320;2023-01-29T10:28:42;100164.34;;;4.25;80.55
73501;BME280;61721;42.206;25.320;2023-01-29T10:31:14;100164.41;;;3.64;81.64
73501;BME280;61721;42.206;25.320;2023-01-29T10:33:47;100155.84;;;3.74;82.32
73501;BME280;61721;42.206;25.320;2023-01-29T10:36:18;100161.81;;;4.08;81.21
73501;BME280;61721;42.206;25.320;2023-01-29T10:38:49;100151.25;;;4.22;81.03
73501;BME280;61721;42.206;25.320;2023-01-29T10:41:26;100158.16;;;4.10;80.31
73501;BME280;61721;42.206;25.320;2023-01-29T10:44:07;100153.44;;;3.85;82.42
73501;BME280;61721;42.206;25.320;2023-01-29T10:46:53;100147.56;;;4.10;81.05
73501;BME280;61721;42.206;25.320;2023-01-29T10:49:34;100147.78;;;4.21;80.95
73501;BME280;61721;42.206;25.320;2023-01-29T10:52:13;100139.44;;;4.27;80.47
73501;BME280;61721;42.206;25.320;2023-01-29T10:54:55;100133.78;;;4.34;79.51
73501;BME280;61721;42.206;25.320;2023-01-29T10:57:41;100134.34;;;4.24;79.08
73501;BME280;61721;42.206;25.320;2023-01-29T11:00:19;100127.00;;;4.58;79.09
73501;BME280;61721;42.206;25.320;2023-01-29T11:02:49;100129.84;;;4.41;79.76
73501;BME280;61721;42.206;25.320;2023-01-29T11:05:23;100126.53;;;3.77;80.85
73501;BME280;61721;42.206;25.320;2023-01-29T11:08:00;100128.28;;;3.93;81.26
73501;BME280;61721;42.206;25.320;2023-01-29T11:10:31;100122.22;;;3.61;81.87
73501;BME280;61721;42.206;25.320;2023-01-29T11:13:01;100112.91;;;3.99;82.19
73501;BME280;61721;42.206;25.320;2023-01-29T11:15:31;100108.94;;;4.50;79.68
73501;BME280;61721;42.206;25.320;2023-01-29T11:18:07;100118.69;;;4.06;80.37
73501;BME280;61721;42.206;25.320;2023-01-29T11:20:39;100112.41;;;4.37;80.00
73501;BME280;61721;42.206;25.320;2023-01-29T11:23:24;100109.78;;;4.37;80.63
73501;BME280;61721;42.206;25.320;2023-01-29T11:25:52;100103.69;;;4.35;80.37
73501;BME280;61721;42.206;25.320;2023-01-29T11:28:39;100103.63;;;4.50;79.57
73501;BME280;61721;42.206;25.320;2023-01-29T11:31:17;100100.97;;;4.50;79.17
73501;BME280;61721;42.206;25.320;2023-01-29T11:33:46;100100.13;;;4.36;80.18
73501;BME280;61721;42.206;25.320;2023-01-29T11:36:29;100104.63;;;4.19;79.72
73501;BME280;61721;42.206;25.320;2023-01-29T11:39:14;100094.81;;;4.64;79.78
73501;BME280;61721;42.206;25.320;2023-01-29T11:41:42;100092.72;;;4.69;79.62
73501;BME280;61721;42.206;25.320;2023-01-29T11:44:26;100087.72;;;4.36;79.68
73501;BME280;61721;42.206;25.320;2023-01-29T11:46:54;100093.56;;;4.69;78.40
73501;BME280;61721;42.206;25.320;2023-01-29T11:49:30;100091.78;;;4.56;79.17
73501;BME280;61721;42.206;25.320;2023-01-29T11:52:00;100089.59;;;4.48;79.99
73501;BME280;61721;42.206;25.320;2023-01-29T11:54:31;100073.03;;;4.73;79.45
73501;BME280;61721;42.206;25.320;2023-01-29T11:57:01;100075.59;;;4.74;78.65
73501;BME280;61721;42.206;25.320;2023-01-29T11:59:36;100083.19;;;4.66;78.58
73501;BME280;61721;42.206;25.320;2023-01-29T12:02:18;100083.25;;;4.65;78.33
73501;BME280;61721;42.206;25.320;2023-01-29T12:04:48;100077.41;;;4.32;78.67
73501;BME280;61721;42.206;25.320;2023-01-29T12:07:17;100072.69;;;4.51;78.91
73501;BME280;61721;42.206;25.320;2023-01-29T12:09:51;100076.53;;;4.59;79.14
73501;BME280;61721;42.206;25.320;2023-01-29T12:12:33;100076.28;;;4.36;80.01
73501;BME280;61721;42.206;25.320;2023-01-29T12:15:17;100062.41;;;4.73;78.73
73501;BME280;61721;42.206;25.320;2023-01-29T12:17:55;100059.56;;;4.90;78.70
73501;BME280;61721;42.206;25.320;2023-01-29T12:20:30;100053.28;;;4.36;79.32
73501;BME280;61721;42.206;25.320;2023-01-29T12:23:10;100059.22;;;4.54;79.86
73501;BME280;61721;42.206;25.320;2023-01-29T12:25:48;100059.88;;;4.15;79.61
73501;BME280;61721;42.206;25.320;2023-01-29T12:28:37;100063.97;;;4.49;79.09
73501;BME280;61721;42.206;25.320;2023-01-29T12:31:13;100050.66;;;4.91;77.94
73501;BME280;61721;42.206;25.320;2023-01-29T12:33:47;100063.38;;;4.58;79.26
73501;BME280;61721;42.206;25.320;2023-01-29T12:36:22;100057.91;;;4.61;79.17
73501;BME280;61721;42.206;25.320;2023-01-29T12:38:51;100050.91;;;4.32;79.16
73501;BME280;61721;42.206;25.320;2023-01-29T12:41:33;100059.22;;;4.11;80.16
73501;BME280;61721;42.206;25.320;2023-01-29T12:44:06;100056.56;;;4.68;78.69
73501;BME280;61721;42.206;25.320;2023-01-29T12:46:42;100067.25;;;4.24;79.38
73501;BME280;61721;42.206;25.320;2023-01-29T12:49:14;100059.03;;;4.71;78.15
73501;BME280;61721;42.206;25.320;2023-01-29T12:51:50;100060.84;;;4.56;78.97
73501;BME280;61721;42.206;25.320;2023-01-29T12:54:21;100059.59;;;4.34;80.02
73501;BME280;61721;42.206;25.320;2023-01-29T12:56:56;100055.91;;;4.64;79.22
73501;BME280;61721;42.206;25.320;2023-01-29T12:59:29;100064.03;;;4.76;78.95
73501;BME280;61721;42.206;25.320;2023-01-29T13:02:01;100064.16;;;4.46;78.97
73501;BME280;61721;42.206;25.320;2023-01-29T13:04:37;100068.53;;;4.47;80.23
73501;BME280;61721;42.206;25.320;2023-01-29T13:07:11;100070.28;;;4.32;80.01
73501;BME280;61721;42.206;25.320;2023-01-29T13:09:43;100068.59;;;4.31;79.78
73501;BME280;61721;42.206;25.320;2023-01-29T13:12:13;100054.59;;;4.71;78.80
73501;BME280;61721;42.206;25.320;2023-01-29T13:14:43;100070.78;;;4.24;79.86
73501;BME280;61721;42.206;25.320;2023-01-29T13:17:18;100067.53;;;4.19;79.96
73501;BME280;61721;42.206;25.320;2023-01-29T13:19:50;100064.34;;;4.28;80.07
73501;BME280;61721;42.206;25.320;2023-01-29T13:22:21;100055.22;;;4.75;79.00